createdAt,value
2022-09-12T00:00:44.738Z,7.20
2022-09-12T00:03:11.088Z,6.90
2022-09-12T00:05:45.858Z,7.03
2022-09-12T00:08:12.947Z,7.00
2022-09-12T00:10:40.648Z,7.70
2022-09-12T00:13:07.867Z,7.17
2022-09-12T00:15:44.556Z,7.85
2022-09-12T00:18:15.186Z,7.80
2022-09-12T00:20:43.604Z,7.57
2022-09-12T00:23:09.998Z,7.55
2022-09-12T00:25:42.431Z,7.77
2022-09-12T00:28:08.781Z,7.95
2022-09-12T00:30:35.135Z,7.90
2022-09-12T00:33:01.541Z,8.27
2022-09-12T00:35:27.909Z,8.52
2022-09-12T00:37:54.232Z,7.97
2022-09-12T00:40:20.776Z,8.43
2022-09-12T00:42:47.179Z,8.95
2022-09-12T00:45:29.953Z,8.60
2022-09-12T00:48:01.981Z,8.75
2022-09-12T00:50:29.203Z,9.47
2022-09-12T00:53:02.669Z,9.23
2022-09-12T00:55:39.040Z,9.18
2022-09-12T00:58:25.196Z,9.60
2022-09-12T01:00:51.648Z,9.30
2022-09-12T01:03:22.075Z,9.43
2022-09-12T01:06:06.513Z,9.90
2022-09-12T01:08:37.235Z,9.85
2022-09-12T01:11:05.676Z,10.88
2022-09-12T01:13:35.011Z,11.20
2022-09-12T01:16:05.906Z,10.87
2022-09-12T01:18:47.330Z,11.60
2022-09-12T01:21:34.682Z,11.25
2022-09-12T01:24:34.307Z,11.82
2022-09-12T01:27:24.845Z,11.30
2022-09-12T01:30:17.464Z,11.97
2022-09-12T01:33:19.065Z,11.65
2022-09-12T01:36:19.530Z,11.40
2022-09-12T01:38:59.325Z,11.57
2022-09-12T01:41:35.650Z,12.07
2022-09-12T01:44:14.858Z,12.07
2022-09-12T01:46:44.043Z,12.00
2022-09-12T01:49:16.491Z,13.48
2022-09-12T01:51:48.300Z,13.65
2022-09-12T01:54:27.032Z,13.40
2022-09-12T01:56:57.722Z,14.80
2022-09-12T01:59:39.386Z,14.32
2022-09-12T02:02:16.924Z,13.50
2022-09-12T02:04:52.616Z,14.40
2022-09-12T02:07:27.390Z,13.98
2022-09-12T02:10:14.576Z,14.87
2022-09-12T02:13:08.561Z,14.15
2022-09-12T02:15:42.076Z,14.65
2022-09-12T02:18:12.299Z,15.30
2022-09-12T02:20:49.203Z,15.15
2022-09-12T02:23:22.326Z,16.40
2022-09-12T02:25:54.135Z,17.17
2022-09-12T02:28:31.881Z,17.10
2022-09-12T02:31:22.601Z,17.15
2022-09-12T02:33:51.860Z,16.33
2022-09-12T02:36:41.604Z,16.90
2022-09-12T02:39:08.395Z,17.52
2022-09-12T02:41:34.967Z,17.63
2022-09-12T02:44:03.448Z,18.52
2022-09-12T02:46:39.033Z,18.25
2022-09-12T02:49:05.607Z,18.43
2022-09-12T02:51:32.877Z,18.80
2022-09-12T02:53:59.748Z,19.23
2022-09-12T02:56:30.205Z,20.05
2022-09-12T02:59:02.423Z,19.67
2022-09-12T03:01:45.044Z,19.73
2022-09-12T03:04:41.079Z,19.92
2022-09-12T03:07:42.478Z,20.63
2022-09-12T03:10:30.970Z,21.13
2022-09-12T03:13:26.467Z,20.35
2022-09-12T03:16:31.209Z,20.57
2022-09-12T03:19:14.660Z,20.95
2022-09-12T03:21:56.677Z,20.73
2022-09-12T03:24:41.940Z,21.27
2022-09-12T03:27:17.455Z,20.23
2022-09-12T03:29:47.827Z,21.23
2022-09-12T03:32:14.765Z,22.10
2022-09-12T03:34:41.131Z,21.25
2022-09-12T03:37:07.494Z,21.63
2022-09-12T03:39:33.928Z,21.35
2022-09-12T03:42:00.338Z,20.80
2022-09-12T03:44:26.760Z,22.20
2022-09-12T03:46:53.143Z,22.02
2022-09-12T03:49:19.494Z,21.30
2022-09-12T03:51:45.897Z,22.08
2022-09-12T03:54:12.327Z,22.40
2022-09-12T03:56:39.171Z,21.85
2022-09-12T03:59:06.777Z,22.63
2022-09-12T04:01:33.604Z,22.67
2022-09-12T04:04:00.216Z,22.55
2022-09-12T04:06:26.672Z,22.17
2022-09-12T04:08:54.646Z,21.48
2022-09-12T04:11:22.657Z,22.17
2022-09-12T04:13:49.383Z,23.33
2022-09-12T04:16:17.346Z,24.05
2022-09-12T04:18:44.538Z,23.07
2022-09-12T04:21:14.313Z,24.27
2022-09-12T04:23:40.743Z,24.70
2022-09-12T04:26:07.811Z,25.20
2022-09-12T04:28:35.908Z,23.23
2022-09-12T04:31:07.966Z,24.67
2022-09-12T04:33:37.288Z,24.38
2022-09-12T04:36:09.261Z,25.10
2022-09-12T04:38:36.732Z,25.42
2022-09-12T04:41:14.487Z,23.98
2022-09-12T04:43:41.343Z,24.80
2022-09-12T04:46:09.466Z,23.85
2022-09-12T04:48:36.120Z,25.27
2022-09-12T04:51:10.332Z,25.27
2022-09-12T04:53:37.538Z,24.77
2022-09-12T04:56:10.892Z,24.90
2022-09-12T04:58:37.871Z,24.02
2022-09-12T05:01:09.579Z,24.27
2022-09-12T05:03:38.983Z,25.63
2022-09-12T05:06:10.663Z,25.83
2022-09-12T05:08:37.087Z,26.47
2022-09-12T05:11:05.936Z,25.05
2022-09-12T05:13:33.928Z,25.70
2022-09-12T05:16:02.500Z,25.23
2022-09-12T05:18:31.872Z,26.10
2022-09-12T05:21:03.801Z,24.83
2022-09-12T05:23:30.872Z,26.35
2022-09-12T05:25:58.594Z,25.85
2022-09-12T05:28:29.188Z,25.15
2022-09-12T05:31:07.395Z,26.42
2022-09-12T05:33:36.064Z,25.07
2022-09-12T05:36:04.507Z,25.13
2022-09-12T05:38:30.919Z,25.67
2022-09-12T05:41:17.505Z,25.58
2022-09-12T05:43:46.135Z,24.88
2022-09-12T05:46:17.985Z,24.53
2022-09-12T05:48:47.086Z,25.85
2022-09-12T05:51:20.205Z,25.35
2022-09-12T05:53:49.076Z,25.00
2022-09-12T05:56:18.372Z,26.15
2022-09-12T05:58:47.510Z,24.67
2022-09-12T06:01:18.248Z,24.23
2022-09-12T06:03:47.575Z,24.98
2022-09-12T06:06:15.603Z,24.85
2022-09-12T06:08:44.454Z,24.75
2022-09-12T06:11:14.450Z,23.63
2022-09-12T06:13:42.298Z,23.55
2022-09-12T06:16:18.755Z,25.00
2022-09-12T06:19:07.003Z,25.70
2022-09-12T06:21:37.802Z,25.83
2022-09-12T06:24:04.380Z,25.67
2022-09-12T06:26:30.975Z,25.63
2022-09-12T06:28:59.566Z,25.58
2022-09-12T06:31:29.598Z,24.73
2022-09-12T06:33:59.132Z,24.92
2022-09-12T06:36:31.265Z,24.83
2022-09-12T06:39:04.503Z,25.48
2022-09-12T06:41:32.060Z,24.60
2022-09-12T06:43:59.439Z,25.33
2022-09-12T06:46:27.270Z,24.92
2022-09-12T06:48:55.938Z,24.87
2022-09-12T06:51:22.284Z,24.50
2022-09-12T06:53:49.243Z,24.20
2022-09-12T06:56:20.239Z,25.30
2022-09-12T06:58:48.610Z,25.48
2022-09-12T07:01:23.208Z,24.27
2022-09-12T07:03:52.514Z,24.92
2022-09-12T07:06:21.101Z,25.52
2022-09-12T07:08:48.040Z,23.95
2022-09-12T07:11:20.780Z,25.13
2022-09-12T07:13:49.635Z,24.70
2022-09-12T07:16:19.662Z,24.98
2022-09-12T07:18:51.438Z,24.52
2022-09-12T07:21:17.782Z,25.20
2022-09-12T07:23:44.823Z,25.27
2022-09-12T07:26:13.056Z,26.03
2022-09-12T07:28:40.054Z,25.75
2022-09-12T07:31:07.442Z,25.20
2022-09-12T07:33:34.092Z,24.10
2022-09-12T07:36:05.627Z,25.20
2022-09-12T07:38:32.484Z,25.37
2022-09-12T07:40:58.950Z,24.63
2022-09-12T07:43:25.459Z,24.75
2022-09-12T07:45:56.358Z,24.95
2022-09-12T07:48:23.063Z,24.23
2022-09-12T07:51:01.198Z,24.50
2022-09-12T07:53:32.039Z,23.30
2022-09-12T07:55:58.537Z,21.92
2022-09-12T07:58:25.235Z,24.27
2022-09-12T08:00:51.880Z,21.98
2022-09-12T08:03:18.397Z,20.87
2022-09-12T08:05:45.036Z,21.35
2022-09-12T08:08:11.431Z,21.10
2022-09-12T08:10:37.840Z,19.80
2022-09-12T08:13:04.200Z,19.55
2022-09-12T08:15:31.483Z,19.00
2022-09-12T08:17:57.874Z,19.05
2022-09-12T08:20:28.150Z,19.00
2022-09-12T08:22:54.831Z,18.58
2022-09-12T08:25:21.336Z,18.75
2022-09-12T08:27:48.303Z,19.13
2022-09-12T08:30:14.781Z,18.50
2022-09-12T08:32:41.123Z,18.85
2022-09-12T08:35:08.036Z,17.85
2022-09-12T08:37:34.440Z,18.55
2022-09-12T08:40:00.929Z,18.33
2022-09-12T08:42:56.932Z,18.85
2022-09-12T08:45:34.690Z,18.45
2022-09-12T08:48:04.291Z,17.33
2022-09-12T08:50:30.947Z,15.90
2022-09-12T08:53:12.387Z,14.20
2022-09-12T08:55:42.897Z,14.27
2022-09-12T08:58:20.197Z,13.88
2022-09-12T09:01:22.185Z,13.35
2022-09-12T09:04:01.384Z,13.07
2022-09-12T09:06:39.827Z,12.40
2022-09-12T09:09:30.933Z,13.13
2022-09-12T09:12:06.666Z,12.40
2022-09-12T09:15:13.249Z,11.90
2022-09-12T09:17:45.247Z,12.05
2022-09-12T09:20:27.821Z,12.57
2022-09-12T09:23:20.686Z,12.68
2022-09-12T09:26:08.815Z,12.10
2022-09-12T09:28:49.790Z,12.13
2022-09-12T09:31:18.423Z,12.85
2022-09-12T09:33:47.829Z,11.53
2022-09-12T09:36:20.549Z,12.70
2022-09-12T09:38:54.348Z,12.20
2022-09-12T09:41:31.219Z,12.23
2022-09-12T09:43:58.662Z,13.23
2022-09-12T09:46:25.438Z,12.37
2022-09-12T09:48:52.966Z,13.10
2022-09-12T09:51:26.014Z,13.38
2022-09-12T09:54:01.606Z,13.55
2022-09-12T09:56:30.568Z,14.48
2022-09-12T09:58:57.063Z,14.90
2022-09-12T10:01:24.587Z,13.93
2022-09-12T10:03:55.201Z,14.20
2022-09-12T10:06:37.910Z,15.27
2022-09-12T10:09:19.136Z,15.85
2022-09-12T10:11:47.806Z,15.97
2022-09-12T10:14:35.067Z,17.15
2022-09-12T10:17:04.085Z,17.48
2022-09-12T10:19:39.524Z,18.85
2022-09-12T10:22:07.320Z,19.02
2022-09-12T10:24:42.107Z,18.47
2022-09-12T10:27:11.583Z,19.17
2022-09-12T10:30:06.440Z,19.30
2022-09-12T10:32:41.202Z,18.58
2022-09-12T10:35:18.651Z,18.52
2022-09-12T10:37:55.584Z,19.17
2022-09-12T10:40:28.264Z,19.60
2022-09-12T10:42:59.509Z,17.90
2022-09-12T10:45:37.513Z,18.83
2022-09-12T10:48:33.491Z,18.73
2022-09-12T10:51:01.980Z,18.57
2022-09-12T10:53:34.685Z,18.50
2022-09-12T10:56:06.997Z,20.08
2022-09-12T10:58:53.662Z,19.00
2022-09-12T11:01:28.184Z,18.48
2022-09-12T11:04:22.260Z,19.57
2022-09-12T11:07:13.406Z,16.55
2022-09-12T11:09:50.103Z,15.68
2022-09-12T11:12:31.468Z,16.38
2022-09-12T11:15:17.102Z,16.75
2022-09-12T11:17:58.647Z,16.77
2022-09-12T11:20:43.235Z,15.98
2022-09-12T11:23:48.314Z,16.08
2022-09-12T11:26:20.971Z,14.68
2022-09-12T11:28:59.307Z,14.90
2022-09-12T11:31:34.855Z,15.33
2022-09-12T11:34:09.023Z,14.15
2022-09-12T11:36:47.252Z,13.70
2022-09-12T11:39:16.508Z,13.65
2022-09-12T11:41:52.207Z,12.82
2022-09-12T11:44:28.496Z,12.67
2022-09-12T11:46:54.996Z,12.88
2022-09-12T11:49:41.688Z,13.63
2022-09-12T11:52:15.818Z,13.52
2022-09-12T11:55:07.538Z,12.10
2022-09-12T11:57:43.043Z,13.70
2022-09-12T12:00:19.882Z,13.02
2022-09-12T12:03:26.674Z,12.90
2022-09-12T12:06:10.344Z,12.32
2022-09-12T12:08:43.354Z,10.43
2022-09-12T12:11:12.130Z,9.77
2022-09-12T12:13:46.694Z,10.52
2022-09-12T12:16:19.638Z,12.70
2022-09-12T12:18:46.339Z,12.20
2022-09-12T12:21:33.693Z,11.63
2022-09-12T12:24:08.991Z,12.13
2022-09-12T12:26:41.382Z,11.00
2022-09-12T12:29:16.760Z,10.90
2022-09-12T12:31:59.078Z,10.57
2022-09-12T12:34:35.555Z,11.60
2022-09-12T12:37:20.326Z,12.20
2022-09-12T12:39:50.369Z,12.27
2022-09-12T12:42:35.037Z,11.77
2022-09-12T12:45:24.431Z,11.85
2022-09-12T12:47:56.610Z,11.43
2022-09-12T12:50:26.579Z,10.50
2022-09-12T12:52:58.877Z,9.65
2022-09-12T12:55:35.082Z,10.00
2022-09-12T12:58:03.513Z,9.80
2022-09-12T13:00:36.650Z,10.55
2022-09-12T13:03:08.869Z,10.37
2022-09-12T13:05:46.257Z,10.48
2022-09-12T13:08:18.344Z,10.82
2022-09-12T13:10:53.583Z,9.77
2022-09-12T13:13:51.970Z,6.50
2022-09-12T13:16:35.477Z,7.80
2022-09-12T13:19:06.157Z,7.60
2022-09-12T13:21:32.570Z,9.65
2022-09-12T13:24:02.566Z,8.85
2022-09-12T13:26:34.879Z,8.38
2022-09-12T13:29:12.671Z,9.13
2022-09-12T13:31:43.153Z,8.00
2022-09-12T13:34:20.903Z,9.80
2022-09-12T13:36:55.064Z,9.07
2022-09-12T13:40:05.733Z,8.30
2022-09-12T13:42:39.288Z,7.30
2022-09-12T13:45:28.889Z,6.43
2022-09-12T13:47:59.772Z,6.20
2022-09-12T13:50:31.762Z,6.28
2022-09-12T13:53:05.874Z,6.65
2022-09-12T13:55:36.325Z,6.77
2022-09-12T13:58:20.941Z,7.30
2022-09-12T14:00:59.613Z,8.27
2022-09-12T14:03:51.553Z,7.93
2022-09-12T14:06:20.014Z,6.97
2022-09-12T14:08:48.165Z,7.07
2022-09-12T14:11:27.455Z,6.07
2022-09-12T14:13:56.099Z,6.43
2022-09-12T14:16:24.076Z,7.40
2022-09-12T14:18:54.526Z,8.23
2022-09-12T14:21:34.440Z,7.83
2022-09-12T14:24:03.527Z,8.00
2022-09-12T14:26:34.435Z,7.13
2022-09-12T14:29:04.915Z,6.70
2022-09-12T14:31:35.292Z,6.95
2022-09-12T14:34:28.583Z,6.97
2022-09-12T14:36:57.138Z,6.90
2022-09-12T14:39:45.474Z,6.75
2022-09-12T14:42:15.112Z,6.53
2022-09-12T14:44:52.019Z,6.88
2022-09-12T14:47:22.661Z,6.30
2022-09-12T14:49:51.672Z,6.07
2022-09-12T14:52:23.340Z,6.10
2022-09-12T14:55:00.157Z,5.90
2022-09-12T14:57:36.729Z,5.95
2022-09-12T15:00:12.191Z,6.57
2022-09-12T15:02:40.159Z,5.65
2022-09-12T15:05:06.462Z,5.72
2022-09-12T15:07:41.415Z,6.07
2022-09-12T15:10:22.011Z,5.65
2022-09-12T15:12:49.086Z,6.00
2022-09-12T15:15:20.902Z,5.68
2022-09-12T15:17:47.295Z,6.05
2022-09-12T15:20:13.989Z,5.70
2022-09-12T15:22:41.883Z,5.97
2022-09-12T15:25:10.915Z,5.90
2022-09-12T15:27:40.747Z,5.95
2022-09-12T15:30:09.751Z,6.25
2022-09-12T15:32:36.960Z,5.70
2022-09-12T15:35:03.711Z,5.80
2022-09-12T15:37:31.009Z,5.60
2022-09-12T15:39:57.567Z,5.80
2022-09-12T15:42:29.185Z,5.80
2022-09-12T15:44:58.409Z,5.25
2022-09-12T15:47:26.971Z,5.28
2022-09-12T15:49:53.341Z,5.23
2022-09-12T15:52:19.728Z,5.40
2022-09-12T15:54:46.061Z,4.80
2022-09-12T15:57:12.440Z,4.63
2022-09-12T15:59:38.783Z,4.80
2022-09-12T16:02:05.247Z,4.27
2022-09-12T16:04:31.809Z,4.30
2022-09-12T16:06:58.419Z,4.35
2022-09-12T16:09:24.893Z,4.10
2022-09-12T16:11:51.756Z,4.28
2022-09-12T16:14:19.554Z,4.10
2022-09-12T16:16:52.753Z,4.20
2022-09-12T16:19:19.526Z,4.07
2022-09-12T16:21:46.217Z,4.10
2022-09-12T16:24:12.596Z,4.05
2022-09-12T16:26:39.049Z,4.27
2022-09-12T16:29:05.391Z,4.18
2022-09-12T16:31:31.931Z,4.25
2022-09-12T16:33:58.346Z,4.25
2022-09-12T16:36:24.874Z,3.75
2022-09-12T16:38:53.551Z,4.53
2022-09-12T16:41:22.373Z,3.95
2022-09-12T16:43:48.976Z,4.05
2022-09-12T16:46:19.040Z,4.60
2022-09-12T16:48:52.043Z,4.22
2022-09-12T16:51:22.480Z,4.07
2022-09-12T16:53:49.381Z,4.00
2022-09-12T16:56:15.810Z,4.55
2022-09-12T16:58:43.123Z,4.13
2022-09-12T17:01:15.570Z,4.45
2022-09-12T17:03:42.709Z,4.60
2022-09-12T17:06:10.747Z,4.00
2022-09-12T17:08:39.737Z,4.20
2022-09-12T17:11:15.330Z,4.15
2022-09-12T17:14:03.829Z,4.30
2022-09-12T17:16:32.623Z,4.20
2022-09-12T17:18:59.139Z,4.10
2022-09-12T17:21:25.895Z,3.90
2022-09-12T17:23:52.378Z,3.67
2022-09-12T17:26:18.727Z,3.90
2022-09-12T17:28:45.135Z,4.10
2022-09-12T17:31:14.347Z,4.07
2022-09-12T17:33:41.808Z,4.10
2022-09-12T17:36:11.939Z,4.10
2022-09-12T17:38:39.731Z,3.80
2022-09-12T17:41:27.262Z,3.93
2022-09-12T17:43:57.099Z,3.78
2022-09-12T17:46:26.325Z,4.07
2022-09-12T17:48:54.652Z,3.72
2022-09-12T17:51:22.351Z,3.72
2022-09-12T17:53:48.917Z,3.80
2022-09-12T17:56:15.608Z,4.28
2022-09-12T17:58:42.083Z,4.35
2022-09-12T18:01:32.491Z,4.90
2022-09-12T18:04:01.527Z,4.80
2022-09-12T18:06:30.540Z,4.83
2022-09-12T18:09:04.767Z,6.07
2022-09-12T18:11:31.361Z,5.30
2022-09-12T18:13:59.105Z,5.30
2022-09-12T18:16:26.342Z,5.50
2022-09-12T18:18:52.778Z,5.30
2022-09-12T18:21:19.756Z,5.13
2022-09-12T18:23:47.240Z,5.20
2022-09-12T18:26:14.206Z,4.47
2022-09-12T18:28:42.857Z,5.10
2022-09-12T18:31:15.766Z,4.30
2022-09-12T18:33:42.902Z,4.28
2022-09-12T18:36:11.834Z,4.35
2022-09-12T18:38:39.334Z,4.63
2022-09-12T18:41:10.780Z,4.90
2022-09-12T18:43:37.769Z,5.10
2022-09-12T18:46:16.600Z,5.22
2022-09-12T18:48:44.989Z,5.13
2022-09-12T18:51:17.841Z,5.93
2022-09-12T18:53:49.355Z,5.45
2022-09-12T18:56:15.759Z,5.37
2022-09-12T18:58:43.659Z,5.22
2022-09-12T19:01:17.941Z,5.15
2022-09-12T19:03:45.541Z,5.65
2022-09-12T19:06:17.513Z,5.30
2022-09-12T19:08:44.525Z,5.10
2022-09-12T19:11:11.721Z,5.57
2022-09-12T19:13:40.389Z,5.20
2022-09-12T19:16:10.731Z,6.10
2022-09-12T19:18:39.196Z,5.90
2022-09-12T19:21:07.255Z,6.03
2022-09-12T19:23:35.273Z,6.05
2022-09-12T19:26:04.940Z,6.38
2022-09-12T19:28:32.112Z,5.88
2022-09-12T19:30:58.629Z,6.47
2022-09-12T19:33:25.839Z,6.47
2022-09-12T19:35:52.288Z,6.60
2022-09-12T19:38:18.957Z,6.47
2022-09-12T19:40:54.909Z,6.72
2022-09-12T19:43:21.276Z,6.53
2022-09-12T19:45:48.255Z,6.20
2022-09-12T19:48:14.628Z,6.50
2022-09-12T19:50:40.959Z,6.82
2022-09-12T19:53:07.395Z,7.13
2022-09-12T19:55:35.362Z,7.10
2022-09-12T19:58:03.053Z,6.93
2022-09-12T20:00:29.568Z,6.80
2022-09-12T20:02:55.922Z,7.18
2022-09-12T20:05:22.293Z,7.20
2022-09-12T20:07:48.775Z,7.45
2022-09-12T20:10:15.614Z,7.37
2022-09-12T20:12:42.119Z,6.50
2022-09-12T20:15:09.577Z,7.07
2022-09-12T20:17:36.376Z,7.60
2022-09-12T20:20:03.859Z,6.93
2022-09-12T20:22:30.430Z,6.77
2022-09-12T20:24:56.855Z,6.60
2022-09-12T20:27:23.254Z,6.90
2022-09-12T20:29:49.674Z,7.20
2022-09-12T20:32:16.363Z,7.50
2022-09-12T20:34:42.704Z,7.27
2022-09-12T20:37:09.071Z,7.90
2022-09-12T20:39:35.647Z,7.03
2022-09-12T20:42:02.080Z,7.75
2022-09-12T20:44:30.139Z,7.40
2022-09-12T20:46:56.872Z,6.83
2022-09-12T20:49:25.895Z,7.60
2022-09-12T20:51:52.329Z,7.70
2022-09-12T20:54:18.697Z,7.53
2022-09-12T20:56:45.063Z,7.72
2022-09-12T20:59:12.181Z,8.30
2022-09-12T21:01:39.149Z,8.43
2022-09-12T21:04:05.600Z,7.85
2022-09-12T21:06:32.056Z,8.27
2022-09-12T21:08:59.735Z,8.15
2022-09-12T21:11:27.431Z,8.13
2022-09-12T21:13:54.256Z,8.48
2022-09-12T21:16:22.502Z,8.57
2022-09-12T21:18:59.333Z,8.32
2022-09-12T21:21:26.283Z,8.95
2022-09-12T21:23:55.118Z,7.57
2022-09-12T21:26:21.472Z,7.45
2022-09-12T21:28:48.212Z,8.00
2022-09-12T21:31:14.643Z,8.07
2022-09-12T21:33:41.097Z,8.38
2022-09-12T21:36:08.184Z,8.20
2022-09-12T21:38:35.105Z,8.88
2022-09-12T21:41:16.294Z,8.52
2022-09-12T21:43:43.456Z,8.43
2022-09-12T21:46:11.148Z,8.07
2022-09-12T21:48:37.695Z,8.90
2022-09-12T21:51:04.358Z,9.25
2022-09-12T21:53:31.128Z,8.30
2022-09-12T21:56:15.803Z,9.93
2022-09-12T21:58:42.183Z,10.43
2022-09-12T22:01:11.676Z,9.90
2022-09-12T22:03:38.191Z,9.90
2022-09-12T22:06:06.111Z,10.13
2022-09-12T22:08:33.586Z,9.77
2022-09-12T22:11:02.228Z,10.10
2022-09-12T22:13:33.650Z,9.87
2022-09-12T22:16:02.876Z,9.95
2022-09-12T22:18:31.749Z,9.45
2022-09-12T22:21:01.589Z,10.35
2022-09-12T22:23:46.550Z,9.30
2022-09-12T22:26:13.971Z,9.20
2022-09-12T22:28:41.084Z,9.77
2022-09-12T22:31:11.698Z,9.85
2022-09-12T22:33:38.171Z,9.27
2022-09-12T22:36:05.582Z,9.32
2022-09-12T22:38:32.038Z,9.60
2022-09-12T22:40:59.155Z,9.63
2022-09-12T22:43:25.880Z,9.57
2022-09-12T22:45:52.262Z,9.15
2022-09-12T22:48:18.672Z,9.38
2022-09-12T22:50:45.690Z,9.37
2022-09-12T22:53:12.092Z,10.00
2022-09-12T22:55:38.477Z,10.27
2022-09-12T22:58:04.841Z,10.40
2022-09-12T23:00:31.259Z,10.70
2022-09-12T23:02:58.275Z,10.47
2022-09-12T23:05:24.726Z,10.40
2022-09-12T23:07:51.498Z,10.40
2022-09-12T23:10:17.907Z,10.52
2022-09-12T23:12:44.299Z,10.40
2022-09-12T23:15:13.599Z,10.60
2022-09-12T23:17:40.167Z,10.68
2022-09-12T23:20:07.119Z,10.52
2022-09-12T23:22:35.802Z,11.27
2022-09-12T23:25:02.172Z,10.38
2022-09-12T23:27:28.526Z,11.23
2022-09-12T23:29:54.936Z,11.57
2022-09-12T23:32:21.351Z,12.30
2022-09-12T23:34:48.297Z,11.05
2022-09-12T23:37:14.736Z,11.48
2022-09-12T23:39:42.312Z,11.83
2022-09-12T23:42:08.698Z,11.43
2022-09-12T23:44:35.068Z,11.70
2022-09-12T23:47:01.425Z,11.55
2022-09-12T23:49:27.750Z,12.05
2022-09-12T23:51:54.104Z,12.07
2022-09-12T23:54:20.434Z,12.55
2022-09-12T23:56:46.771Z,12.25
2022-09-12T23:59:13.128Z,13.02
